PWSweather.com
Personal Weather Stations
Station Observations
SELKIRK1
Ontario, Selkirk, ON N0A 1P0

OntarioSelkirk, ON N0A 1P0

Lat: 42.8083652, Lon: -79.94971040000001

Elevation: 583

Station Type: Acurite 5 in 1

http://gavinsurf.com

High Low Average
Temperature 79.3°F26.3°C 60.3°F15.7°C 70.5°F21.4°C
Dew Point 71.9°F22.2°C 58.1°F14.5°C 66.8°F19.3°C
Winds 5.8 mph 9.3 kmh Calm Calm 3.0 mph SW4.8 kmh SW
Wind Gusts 6.9 mph11.1 kmh -- 3.0 mph4.8 kmh
Humidity 99% 76% 88%
Pressure 31.83 in1077.9 mb 31.83 in1077.9 mb -
Precipitation 0.00 in0.0 mm - -
Hour Temp Dew Point Humidity Winds Wind Gusts Pressure Precip Precip Rate Daily Precip Total
12:00 AM 62.6°F17.0°C 60.8°F16.0°C 94% 3.5 mph N5.6 kmh N 3.5 mph5.6 kmh 31.83 in1077.9 mb - 0.00 in0.0 mm 0.00 in0.0 mm
12:10 AM 62.3°F16.8°C 60.8°F16.0°C 95% 3.5 mph N5.6 kmh N 3.5 mph5.6 kmh 31.83 in1077.9 mb - 0.00 in0.0 mm 0.00 in0.0 mm
12:15 AM 62.3°F16.8°C 60.8°F16.0°C 95% 3.5 mph N5.6 kmh N 3.5 mph5.6 kmh 31.83 in1077.9 mb - 0.00 in0.0 mm 0.00 in0.0 mm
12:20 AM 62.3°F16.8°C 61.1°F16.2°C 96% 3.5 mph N5.6 kmh N 3.5 mph5.6 kmh 31.83 in1077.9 mb - 0.00 in0.0 mm 0.00 in0.0 mm
12:25 AM 62.1°F16.7°C 61.0°F16.1°C 96% 3.5 mph N5.6 kmh N 3.5 mph5.6 kmh 31.83 in1077.9 mb - 0.00 in0.0 mm 0.00 in0.0 mm
12:30 AM 62.1°F16.7°C 60.9°F16.1°C 96% 3.5 mph N5.6 kmh N 3.5 mph5.6 kmh 31.83 in1077.9 mb - 0.00 in0.0 mm 0.00 in0.0 mm
12:35 AM 62.1°F16.7°C 60.9°F16.1°C 96% 3.5 mph N5.6 kmh N 3.5 mph5.6 kmh 31.83 in1077.9 mb - 0.00 in0.0 mm 0.00 in0.0 mm
12:40 AM 62.1°F16.7°C 60.9°F16.1°C 96% 2.3 mph N3.7 kmh N 2.3 mph3.7 kmh 31.83 in1077.9 mb - 0.00 in0.0 mm 0.00 in0.0 mm
12:45 AM 61.9°F16.6°C 60.1°F15.6°C 94% 2.3 mph N3.7 kmh N 2.3 mph3.7 kmh 31.83 in1077.9 mb - 0.00 in0.0 mm 0.00 in0.0 mm
12:50 AM 61.9°F16.6°C 60.1°F15.6°C 94% 2.3 mph N3.7 kmh N 2.3 mph3.7 kmh 31.83 in1077.9 mb - 0.00 in0.0 mm 0.00 in0.0 mm
12:55 AM 62.1°F16.7°C 60.3°F15.7°C 94% 2.3 mph N3.7 kmh N 2.3 mph3.7 kmh 31.83 in1077.9 mb - 0.00 in0.0 mm 0.00 in0.0 mm
01:00 AM 62.1°F16.7°C 60.3°F15.7°C 94% 3.5 mph N5.6 kmh N 3.5 mph5.6 kmh 31.83 in1077.9 mb - 0.00 in0.0 mm 0.00 in0.0 mm
01:10 AM 62.1°F16.7°C 60.6°F15.9°C 95% 3.5 mph N5.6 kmh N 3.5 mph5.6 kmh 31.83 in1077.9 mb - 0.00 in0.0 mm 0.00 in0.0 mm
01:15 AM 61.8°F16.6°C 60.4°F15.8°C 95% 3.5 mph N5.6 kmh N 3.5 mph5.6 kmh 31.83 in1077.9 mb - 0.00 in0.0 mm 0.00 in0.0 mm
01:20 AM 61.7°F16.5°C 59.9°F15.5°C 94% 2.3 mph N3.7 kmh N 2.3 mph3.7 kmh 31.83 in1077.9 mb - 0.00 in0.0 mm 0.00 in0.0 mm
01:25 AM 61.5°F16.4°C 58.8°F14.9°C 91% 2.3 mph NNW3.7 kmh NNW 2.3 mph3.7 kmh 31.83 in1077.9 mb - 0.00 in0.0 mm 0.00 in0.0 mm
01:30 AM 61.5°F16.4°C 58.5°F14.7°C 90% 2.3 mph N3.7 kmh N 2.3 mph3.7 kmh 31.83 in1077.9 mb - 0.00 in0.0 mm 0.00 in0.0 mm
01:35 AM 61.7°F16.5°C 58.7°F14.8°C 90% 2.3 mph N3.7 kmh N 3.5 mph5.6 kmh 31.83 in1077.9 mb - 0.00 in0.0 mm 0.00 in0.0 mm
01:40 AM 61.8°F16.6°C 59.1°F15.1°C 91% 3.5 mph N5.6 kmh N 3.5 mph5.6 kmh 31.83 in1077.9 mb - 0.00 in0.0 mm 0.00 in0.0 mm
01:45 AM 61.9°F16.6°C 59.8°F15.4°C 93% 4.6 mph N7.4 kmh N 4.6 mph7.4 kmh 31.83 in1077.9 mb - 0.00 in0.0 mm 0.00 in0.0 mm
01:50 AM 61.7°F16.5°C 59.6°F15.3°C 93% 3.5 mph N5.6 kmh N 3.5 mph5.6 kmh 31.83 in1077.9 mb - 0.00 in0.0 mm 0.00 in0.0 mm
01:55 AM 61.7°F16.5°C 59.4°F15.2°C 92% 3.5 mph N5.6 kmh N 4.6 mph7.4 kmh 31.83 in1077.9 mb - 0.00 in0.0 mm 0.00 in0.0 mm
02:00 AM 61.7°F16.5°C 60.0°F15.6°C 94% 4.6 mph N7.4 kmh N 4.6 mph7.4 kmh 31.83 in1077.9 mb - 0.00 in0.0 mm 0.00 in0.0 mm
02:10 AM 62.1°F16.7°C 59.1°F15.1°C 90% 2.3 mph NNE3.7 kmh NNE 2.3 mph3.7 kmh 31.83 in1077.9 mb - 0.00 in0.0 mm 0.00 in0.0 mm
02:15 AM 62.1°F16.7°C 58.8°F14.9°C 89% 2.3 mph NE3.7 kmh NE 2.3 mph3.7 kmh 31.83 in1077.9 mb - 0.00 in0.0 mm 0.00 in0.0 mm
02:20 AM 62.3°F16.8°C 58.4°F14.7°C 87% Calm Calm -- 31.83 in1077.9 mb - 0.00 in0.0 mm 0.00 in0.0 mm
02:25 AM 62.3°F16.8°C 58.4°F14.7°C 87% Calm Calm -- 31.83 in1077.9 mb - 0.00 in0.0 mm 0.00 in0.0 mm
02:30 AM 62.3°F16.8°C 58.7°F14.8°C 88% 2.3 mph NE3.7 kmh NE 2.3 mph3.7 kmh 31.83 in1077.9 mb - 0.00 in0.0 mm 0.00 in0.0 mm
02:35 AM 62.3°F16.8°C 58.7°F14.8°C 88% Calm Calm 1.2 mph1.9 kmh 31.83 in1077.9 mb - 0.00 in0.0 mm 0.00 in0.0 mm
02:40 AM 62.3°F16.8°C 58.7°F14.8°C 88% 2.3 mph NNW3.7 kmh NNW 2.3 mph3.7 kmh 31.83 in1077.9 mb - 0.00 in0.0 mm 0.00 in0.0 mm
02:45 AM 62.3°F16.8°C 59.0°F15.0°C 89% 2.3 mph N3.7 kmh N 3.5 mph5.6 kmh 31.83 in1077.9 mb - 0.00 in0.0 mm 0.00 in0.0 mm
02:50 AM 62.2°F16.8°C 59.2°F15.1°C 90% 2.3 mph N3.7 kmh N 3.5 mph5.6 kmh 31.83 in1077.9 mb - 0.00 in0.0 mm 0.00 in0.0 mm
02:55 AM 61.8°F16.6°C 58.8°F14.9°C 90% 2.3 mph N3.7 kmh N 3.5 mph5.6 kmh 31.83 in1077.9 mb - 0.00 in0.0 mm 0.00 in0.0 mm
03:00 AM 61.8°F16.6°C 58.8°F14.9°C 90% 3.5 mph N5.6 kmh N 3.5 mph5.6 kmh 31.83 in1077.9 mb - 0.00 in0.0 mm 0.00 in0.0 mm
03:10 AM 61.4°F16.3°C 59.1°F15.1°C 92% 3.5 mph N5.6 kmh N 3.5 mph5.6 kmh 31.83 in1077.9 mb - 0.00 in0.0 mm 0.00 in0.0 mm
03:15 AM 61.4°F16.3°C 59.0°F15.0°C 92% 3.5 mph N5.6 kmh N 3.5 mph5.6 kmh 31.83 in1077.9 mb - 0.00 in0.0 mm 0.00 in0.0 mm
03:20 AM 61.4°F16.3°C 59.0°F15.0°C 92% 3.5 mph N5.6 kmh N 3.5 mph5.6 kmh 31.83 in1077.9 mb - 0.00 in0.0 mm 0.00 in0.0 mm
03:25 AM 61.4°F16.3°C 59.0°F15.0°C 92% 4.6 mph N7.4 kmh N 4.6 mph7.4 kmh 31.83 in1077.9 mb - 0.00 in0.0 mm 0.00 in0.0 mm
03:30 AM 61.2°F16.2°C 59.1°F15.1°C 93% 4.6 mph N7.4 kmh N 4.6 mph7.4 kmh 31.83 in1077.9 mb - 0.00 in0.0 mm 0.00 in0.0 mm
03:35 AM 61.2°F16.2°C 59.1°F15.1°C 93% 2.3 mph N3.7 kmh N 2.3 mph3.7 kmh 31.83 in1077.9 mb - 0.00 in0.0 mm 0.00 in0.0 mm
03:40 AM 61.0°F16.1°C 58.6°F14.8°C 92% 2.3 mph N3.7 kmh N 3.5 mph5.6 kmh 31.83 in1077.9 mb - 0.00 in0.0 mm 0.00 in0.0 mm
03:45 AM 61.2°F16.2°C 58.8°F14.9°C 92% 3.5 mph N5.6 kmh N 3.5 mph5.6 kmh 31.83 in1077.9 mb - 0.00 in0.0 mm 0.00 in0.0 mm
03:50 AM 61.0°F16.1°C 58.6°F14.8°C 92% 3.5 mph N5.6 kmh N 3.5 mph5.6 kmh 31.83 in1077.9 mb - 0.00 in0.0 mm 0.00 in0.0 mm
03:55 AM 61.2°F16.2°C 58.8°F14.9°C 92% 3.5 mph N5.6 kmh N 3.5 mph5.6 kmh 31.83 in1077.9 mb - 0.00 in0.0 mm 0.00 in0.0 mm
04:00 AM 61.2°F16.2°C 58.8°F14.9°C 92% Calm Calm -- 31.83 in1077.9 mb - 0.00 in0.0 mm 0.00 in0.0 mm
04:10 AM 60.8°F16.0°C 58.1°F14.5°C 91% Calm Calm -- 31.83 in1077.9 mb - 0.00 in0.0 mm 0.00 in0.0 mm
04:15 AM 60.8°F16.0°C 58.1°F14.5°C 91% Calm Calm -- 31.83 in1077.9 mb - 0.00 in0.0 mm 0.00 in0.0 mm
04:20 AM 60.8°F16.0°C 58.4°F14.7°C 92% 2.3 mph N3.7 kmh N 2.3 mph3.7 kmh 31.83 in1077.9 mb - 0.00 in0.0 mm 0.00 in0.0 mm
04:25 AM 60.6°F15.9°C 58.5°F14.7°C 93% 2.3 mph N3.7 kmh N 2.3 mph3.7 kmh 31.83 in1077.9 mb - 0.00 in0.0 mm 0.00 in0.0 mm
04:30 AM 60.5°F15.8°C 58.7°F14.8°C 94% 2.3 mph NNE3.7 kmh NNE 2.3 mph3.7 kmh 31.83 in1077.9 mb - 0.00 in0.0 mm 0.00 in0.0 mm
04:35 AM 60.3°F15.7°C 58.5°F14.7°C 94% 3.5 mph N5.6 kmh N 3.5 mph5.6 kmh 31.83 in1077.9 mb - 0.00 in0.0 mm 0.00 in0.0 mm
04:40 AM 60.3°F15.7°C 58.5°F14.7°C 94% 3.5 mph NNE5.6 kmh NNE 4.6 mph7.4 kmh 31.83 in1077.9 mb - 0.00 in0.0 mm 0.00 in0.0 mm
04:45 AM 60.3°F15.7°C 58.5°F14.7°C 94% 5.8 mph NNE9.3 kmh NNE 5.8 mph9.3 kmh 31.83 in1077.9 mb - 0.00 in0.0 mm 0.00 in0.0 mm
04:50 AM 60.5°F15.8°C 58.7°F14.8°C 94% 5.8 mph NNE9.3 kmh NNE 6.9 mph11.1 kmh 31.83 in1077.9 mb - 0.00 in0.0 mm 0.00 in0.0 mm
04:55 AM 60.8°F16.0°C 58.7°F14.8°C 93% 5.8 mph NNE9.3 kmh NNE 5.8 mph9.3 kmh 31.83 in1077.9 mb - 0.00 in0.0 mm 0.00 in0.0 mm
05:00 AM 60.8°F16.0°C 58.7°F14.8°C 93% 4.6 mph N7.4 kmh N 4.6 mph7.4 kmh 31.83 in1077.9 mb - 0.00 in0.0 mm 0.00 in0.0 mm
05:10 AM 61.5°F16.4°C 58.9°F14.9°C 91% 2.3 mph NNE3.7 kmh NNE 3.5 mph5.6 kmh 31.83 in1077.9 mb - 0.00 in0.0 mm 0.00 in0.0 mm
05:15 AM 62.2°F16.8°C 59.5°F15.3°C 91% 3.5 mph NNE5.6 kmh NNE 3.5 mph5.6 kmh 31.83 in1077.9 mb - 0.00 in0.0 mm 0.00 in0.0 mm
05:20 AM 62.4°F16.9°C 59.7°F15.4°C 91% Calm Calm -- 31.83 in1077.9 mb - 0.00 in0.0 mm 0.00 in0.0 mm
05:25 AM 62.4°F16.9°C 59.4°F15.2°C 90% Calm Calm -- 31.83 in1077.9 mb - 0.00 in0.0 mm 0.00 in0.0 mm
05:30 AM 62.9°F17.2°C 60.0°F15.6°C 90% 1.2 mph SE1.9 kmh SE 1.2 mph1.9 kmh 31.83 in1077.9 mb - 0.00 in0.0 mm 0.00 in0.0 mm
05:35 AM 63.3°F17.4°C 60.9°F16.1°C 92% 1.2 mph SE1.9 kmh SE 2.3 mph3.7 kmh 31.83 in1077.9 mb - 0.00 in0.0 mm 0.00 in0.0 mm
05:40 AM 63.4°F17.4°C 60.7°F15.9°C 91% 1.2 mph SE1.9 kmh SE 1.2 mph1.9 kmh 31.83 in1077.9 mb - 0.00 in0.0 mm 0.00 in0.0 mm
05:45 AM 63.7°F17.6°C 61.0°F16.1°C 91% 1.2 mph S1.9 kmh S 2.3 mph3.7 kmh 31.83 in1077.9 mb - 0.00 in0.0 mm 0.00 in0.0 mm
05:50 AM 63.9°F17.7°C 61.5°F16.4°C 92% 3.5 mph SSW5.6 kmh SSW 3.5 mph5.6 kmh 31.83 in1077.9 mb - 0.00 in0.0 mm 0.00 in0.0 mm
05:55 AM 64.1°F17.8°C 61.7°F16.5°C 92% 1.2 mph S1.9 kmh S 1.2 mph1.9 kmh 31.83 in1077.9 mb - 0.00 in0.0 mm 0.00 in0.0 mm
06:00 AM 64.5°F18.1°C 61.8°F16.6°C 91% Calm Calm -- 31.83 in1077.9 mb - 0.00 in0.0 mm 0.00 in0.0 mm
06:10 AM 65.3°F18.5°C 61.3°F16.3°C 87% Calm Calm -- 31.83 in1077.9 mb - 0.00 in0.0 mm 0.00 in0.0 mm
06:15 AM 66.2°F19.0°C 62.2°F16.8°C 87% Calm Calm -- 31.83 in1077.9 mb - 0.00 in0.0 mm 0.00 in0.0 mm
06:20 AM 66.6°F19.2°C 62.3°F16.8°C 86% Calm Calm -- 31.83 in1077.9 mb - 0.00 in0.0 mm 0.00 in0.0 mm
06:25 AM 66.9°F19.4°C 62.6°F17.0°C 86% Calm Calm -- 31.83 in1077.9 mb - 0.00 in0.0 mm 0.00 in0.0 mm
06:30 AM 67.1°F19.5°C 62.4°F16.9°C 85% 1.2 mph SSE1.9 kmh SSE 1.2 mph1.9 kmh 31.83 in1077.9 mb - 0.00 in0.0 mm 0.00 in0.0 mm
06:35 AM 67.1°F19.5°C 61.7°F16.5°C 83% Calm Calm -- 31.83 in1077.9 mb - 0.00 in0.0 mm 0.00 in0.0 mm
06:40 AM 67.1°F19.5°C 62.1°F16.7°C 84% 1.2 mph S1.9 kmh S -- 31.83 in1077.9 mb - 0.00 in0.0 mm 0.00 in0.0 mm
06:45 AM 67.0°F19.4°C 62.7°F17.1°C 86% 2.3 mph SE3.7 kmh SE 2.3 mph3.7 kmh 31.83 in1077.9 mb - 0.00 in0.0 mm 0.00 in0.0 mm
06:50 AM 67.1°F19.5°C 63.1°F17.3°C 87% Calm Calm 3.5 mph5.6 kmh 31.83 in1077.9 mb - 0.00 in0.0 mm 0.00 in0.0 mm
06:55 AM 67.5°F19.7°C 62.5°F16.9°C 84% Calm Calm -- 31.83 in1077.9 mb - 0.00 in0.0 mm 0.00 in0.0 mm
07:00 AM 68.6°F20.3°C 61.5°F16.4°C 78% 1.2 mph SW1.9 kmh SW 2.3 mph3.7 kmh 31.83 in1077.9 mb - 0.00 in0.0 mm 0.00 in0.0 mm
07:10 AM 69.3°F20.7°C 62.5°F16.9°C 79% 2.3 mph WSW3.7 kmh WSW 2.3 mph3.7 kmh 31.83 in1077.9 mb - 0.00 in0.0 mm 0.00 in0.0 mm
07:15 AM 69.3°F20.7°C 62.2°F16.8°C 78% 1.2 mph SW1.9 kmh SW 2.3 mph3.7 kmh 31.83 in1077.9 mb - 0.00 in0.0 mm 0.00 in0.0 mm
07:20 AM 69.5°F20.8°C 62.0°F16.7°C 77% 2.3 mph SW3.7 kmh SW 2.3 mph3.7 kmh 31.83 in1077.9 mb - 0.00 in0.0 mm 0.00 in0.0 mm
07:25 AM 69.5°F20.8°C 62.0°F16.7°C 77% 2.3 mph SSW3.7 kmh SSW 2.3 mph3.7 kmh 31.83 in1077.9 mb - 0.00 in0.0 mm 0.00 in0.0 mm
07:30 AM 70.0°F21.1°C 62.4°F16.9°C 77% 2.3 mph SSE3.7 kmh SSE 2.3 mph3.7 kmh 31.83 in1077.9 mb - 0.00 in0.0 mm 0.00 in0.0 mm
07:35 AM 68.7°F20.4°C 63.0°F17.2°C 82% 3.5 mph SW5.6 kmh SW 3.5 mph5.6 kmh 31.83 in1077.9 mb - 0.00 in0.0 mm 0.00 in0.0 mm
07:40 AM 68.5°F20.3°C 63.8°F17.7°C 85% 3.5 mph S5.6 kmh S 3.5 mph5.6 kmh 31.83 in1077.9 mb - 0.00 in0.0 mm 0.00 in0.0 mm
07:45 AM 69.1°F20.6°C 64.0°F17.8°C 84% 2.3 mph SSW3.7 kmh SSW 3.5 mph5.6 kmh 31.83 in1077.9 mb - 0.00 in0.0 mm 0.00 in0.0 mm
07:50 AM 68.6°F20.3°C 63.9°F17.7°C 85% 2.3 mph SW3.7 kmh SW 3.5 mph5.6 kmh 31.83 in1077.9 mb - 0.00 in0.0 mm 0.00 in0.0 mm
07:55 AM 69.3°F20.7°C 63.9°F17.7°C 83% 3.5 mph SW5.6 kmh SW 3.5 mph5.6 kmh 31.83 in1077.9 mb - 0.00 in0.0 mm 0.00 in0.0 mm
08:00 AM 69.5°F20.8°C 64.8°F18.2°C 85% 2.3 mph SW3.7 kmh SW 2.3 mph3.7 kmh 31.83 in1077.9 mb - 0.00 in0.0 mm 0.00 in0.0 mm
08:10 AM 70.0°F21.1°C 64.9°F18.3°C 84% 3.5 mph SSW5.6 kmh SSW 4.6 mph7.4 kmh 31.83 in1077.9 mb - 0.00 in0.0 mm 0.00 in0.0 mm
08:15 AM 70.4°F21.3°C 65.3°F18.5°C 84% 2.3 mph S3.7 kmh S 3.5 mph5.6 kmh 31.83 in1077.9 mb - 0.00 in0.0 mm 0.00 in0.0 mm
08:20 AM 70.0°F21.1°C 65.3°F18.5°C 85% 2.3 mph S3.7 kmh S 2.3 mph3.7 kmh 31.83 in1077.9 mb - 0.00 in0.0 mm 0.00 in0.0 mm
08:25 AM 70.2°F21.2°C 65.5°F18.6°C 85% 2.3 mph SSW3.7 kmh SSW 3.5 mph5.6 kmh 31.83 in1077.9 mb - 0.00 in0.0 mm 0.00 in0.0 mm
08:30 AM 70.7°F21.5°C 65.6°F18.7°C 84% 1.2 mph SSW1.9 kmh SSW 2.3 mph3.7 kmh 31.83 in1077.9 mb - 0.00 in0.0 mm 0.00 in0.0 mm
08:35 AM 70.7°F21.5°C 65.6°F18.7°C 84% 2.3 mph SSW3.7 kmh SSW 3.5 mph5.6 kmh 31.83 in1077.9 mb - 0.00 in0.0 mm 0.00 in0.0 mm
08:40 AM 70.4°F21.3°C 66.0°F18.9°C 86% 3.5 mph SSW5.6 kmh SSW 3.5 mph5.6 kmh 31.83 in1077.9 mb - 0.00 in0.0 mm 0.00 in0.0 mm
08:45 AM 70.7°F21.5°C 66.6°F19.2°C 87% 2.3 mph S3.7 kmh S 3.5 mph5.6 kmh 31.83 in1077.9 mb - 0.00 in0.0 mm 0.00 in0.0 mm
08:50 AM 70.9°F21.6°C 67.2°F19.6°C 88% 3.5 mph S5.6 kmh S 4.6 mph7.4 kmh 31.83 in1077.9 mb - 0.00 in0.0 mm 0.00 in0.0 mm
08:55 AM 71.1°F21.7°C 67.4°F19.7°C 88% 3.5 mph SSW5.6 kmh SSW 3.5 mph5.6 kmh 31.83 in1077.9 mb - 0.00 in0.0 mm 0.00 in0.0 mm
09:00 AM 70.8°F21.6°C 67.4°F19.7°C 89% 4.6 mph SSW7.4 kmh SSW 4.6 mph7.4 kmh 31.83 in1077.9 mb - 0.00 in0.0 mm 0.00 in0.0 mm
09:10 AM 72.2°F22.3°C 68.1°F20.1°C 87% 3.5 mph SSW5.6 kmh SSW 3.5 mph5.6 kmh 31.83 in1077.9 mb - 0.00 in0.0 mm 0.00 in0.0 mm
09:15 AM 71.4°F21.9°C 67.6°F19.8°C 88% 3.5 mph SSW5.6 kmh SSW 4.6 mph7.4 kmh 31.83 in1077.9 mb - 0.00 in0.0 mm 0.00 in0.0 mm
09:20 AM 72.2°F22.3°C 68.5°F20.3°C 88% 2.3 mph SSW3.7 kmh SSW 3.5 mph5.6 kmh 31.83 in1077.9 mb - 0.00 in0.0 mm 0.00 in0.0 mm
09:25 AM 72.3°F22.4°C 68.2°F20.1°C 87% 3.5 mph SSW5.6 kmh SSW 3.5 mph5.6 kmh 31.83 in1077.9 mb - 0.00 in0.0 mm 0.00 in0.0 mm
09:30 AM 72.1°F22.3°C 68.7°F20.4°C 89% 3.5 mph S5.6 kmh S 3.5 mph5.6 kmh 31.83 in1077.9 mb - 0.00 in0.0 mm 0.00 in0.0 mm
09:35 AM 72.3°F22.4°C 68.6°F20.3°C 88% 3.5 mph S5.6 kmh S 3.5 mph5.6 kmh 31.83 in1077.9 mb - 0.00 in0.0 mm 0.00 in0.0 mm
09:40 AM 72.9°F22.7°C 68.8°F20.4°C 87% 3.5 mph SSW5.6 kmh SSW 4.6 mph7.4 kmh 31.83 in1077.9 mb - 0.00 in0.0 mm 0.00 in0.0 mm
09:45 AM 71.7°F22.1°C 68.0°F20.0°C 88% 5.8 mph SSW9.3 kmh SSW 5.8 mph9.3 kmh 31.83 in1077.9 mb - 0.00 in0.0 mm 0.00 in0.0 mm
09:50 AM 72.3°F22.4°C 68.5°F20.3°C 88% 3.5 mph SW5.6 kmh SW 3.5 mph5.6 kmh 31.83 in1077.9 mb - 0.00 in0.0 mm 0.00 in0.0 mm
09:55 AM 72.9°F22.7°C 68.8°F20.4°C 87% 4.6 mph SW7.4 kmh SW 4.6 mph7.4 kmh 31.83 in1077.9 mb - 0.00 in0.0 mm 0.00 in0.0 mm
10:00 AM 73.4°F23.0°C 69.3°F20.7°C 87% 3.5 mph SW5.6 kmh SW 4.6 mph7.4 kmh 31.83 in1077.9 mb - 0.00 in0.0 mm 0.00 in0.0 mm
10:10 AM 73.5°F23.1°C 69.0°F20.6°C 86% 3.5 mph SSW5.6 kmh SSW 4.6 mph7.4 kmh 31.83 in1077.9 mb - 0.00 in0.0 mm 0.00 in0.0 mm
10:15 AM 74.0°F23.3°C 69.5°F20.8°C 86% 2.3 mph SE3.7 kmh SE 3.5 mph5.6 kmh 31.83 in1077.9 mb - 0.00 in0.0 mm 0.00 in0.0 mm
10:20 AM 73.4°F23.0°C 68.9°F20.5°C 86% 3.5 mph SSW5.6 kmh SSW 3.5 mph5.6 kmh 31.83 in1077.9 mb - 0.00 in0.0 mm 0.00 in0.0 mm
10:25 AM 74.7°F23.7°C 69.9°F21.1°C 85% 3.5 mph SSW5.6 kmh SSW 3.5 mph5.6 kmh 31.83 in1077.9 mb - 0.00 in0.0 mm 0.00 in0.0 mm
10:30 AM 74.3°F23.5°C 69.1°F20.6°C 84% 4.6 mph SW7.4 kmh SW 4.6 mph7.4 kmh 31.83 in1077.9 mb - 0.00 in0.0 mm 0.00 in0.0 mm
10:35 AM 74.3°F23.5°C 69.5°F20.8°C 85% 4.6 mph SW7.4 kmh SW 4.6 mph7.4 kmh 31.83 in1077.9 mb - 0.00 in0.0 mm 0.00 in0.0 mm
10:40 AM 73.6°F23.1°C 69.1°F20.6°C 86% 4.6 mph S7.4 kmh S 4.6 mph7.4 kmh 31.83 in1077.9 mb - 0.00 in0.0 mm 0.00 in0.0 mm
10:45 AM 74.1°F23.4°C 69.3°F20.7°C 85% 3.5 mph S5.6 kmh S 3.5 mph5.6 kmh 31.83 in1077.9 mb - 0.00 in0.0 mm 0.00 in0.0 mm
10:50 AM 74.6°F23.7°C 69.8°F21.0°C 85% 3.5 mph SSW5.6 kmh SSW 4.6 mph7.4 kmh 31.83 in1077.9 mb - 0.00 in0.0 mm 0.00 in0.0 mm
10:55 AM 75.5°F24.2°C 70.0°F21.1°C 83% 3.5 mph SW5.6 kmh SW 4.6 mph7.4 kmh 31.83 in1077.9 mb - 0.00 in0.0 mm 0.00 in0.0 mm
11:00 AM 75.8°F24.3°C 69.9°F21.1°C 82% 4.6 mph SW7.4 kmh SW 4.6 mph7.4 kmh 31.83 in1077.9 mb - 0.00 in0.0 mm 0.00 in0.0 mm
11:10 AM 75.2°F24.0°C 69.3°F20.7°C 82% 4.6 mph SW7.4 kmh SW 4.6 mph7.4 kmh 31.83 in1077.9 mb - 0.00 in0.0 mm 0.00 in0.0 mm
11:15 AM 75.2°F24.0°C 69.3°F20.7°C 82% 4.6 mph SW7.4 kmh SW 5.8 mph9.3 kmh 31.83 in1077.9 mb - 0.00 in0.0 mm 0.00 in0.0 mm
11:20 AM 75.9°F24.4°C 69.7°F20.9°C 81% 4.6 mph SW7.4 kmh SW 4.6 mph7.4 kmh 31.83 in1077.9 mb - 0.00 in0.0 mm 0.00 in0.0 mm
11:25 AM 76.1°F24.5°C 69.5°F20.8°C 80% 4.6 mph SSW7.4 kmh SSW 5.8 mph9.3 kmh 31.83 in1077.9 mb - 0.00 in0.0 mm 0.00 in0.0 mm
11:30 AM 76.8°F24.9°C 70.1°F21.2°C 80% 3.5 mph SW5.6 kmh SW 4.6 mph7.4 kmh 31.83 in1077.9 mb - 0.00 in0.0 mm 0.00 in0.0 mm
11:35 AM 76.8°F24.9°C 70.1°F21.2°C 80% 4.6 mph SW7.4 kmh SW 4.6 mph7.4 kmh 31.83 in1077.9 mb - 0.00 in0.0 mm 0.00 in0.0 mm
11:40 AM 75.5°F24.2°C 69.6°F20.9°C 82% 4.6 mph SW7.4 kmh SW 5.8 mph9.3 kmh 31.83 in1077.9 mb - 0.00 in0.0 mm 0.00 in0.0 mm
11:45 AM 75.9°F24.4°C 69.6°F20.9°C 81% 4.6 mph S7.4 kmh S 5.8 mph9.3 kmh 31.83 in1077.9 mb - 0.00 in0.0 mm 0.00 in0.0 mm
11:50 AM 76.1°F24.5°C 69.8°F21.0°C 81% 4.6 mph SSW7.4 kmh SSW 4.6 mph7.4 kmh 31.83 in1077.9 mb - 0.00 in0.0 mm 0.00 in0.0 mm
11:55 AM 75.8°F24.3°C 69.9°F21.1°C 82% 5.8 mph SSW9.3 kmh SSW 5.8 mph9.3 kmh 31.83 in1077.9 mb - 0.00 in0.0 mm 0.00 in0.0 mm
12:00 PM 75.6°F24.2°C 69.7°F20.9°C 82% 5.8 mph SSW9.3 kmh SSW 5.8 mph9.3 kmh 31.83 in1077.9 mb - 0.00 in0.0 mm 0.00 in0.0 mm
12:10 PM 76.4°F24.7°C 70.5°F21.4°C 82% 3.5 mph S5.6 kmh S 5.8 mph9.3 kmh 31.83 in1077.9 mb - 0.00 in0.0 mm 0.00 in0.0 mm
12:15 PM 77.3°F25.2°C 70.7°F21.5°C 80% 3.5 mph SW5.6 kmh SW 4.6 mph7.4 kmh 31.83 in1077.9 mb - 0.00 in0.0 mm 0.00 in0.0 mm
12:20 PM 78.1°F25.6°C 70.7°F21.5°C 78% 3.5 mph SW5.6 kmh SW 4.6 mph7.4 kmh 31.83 in1077.9 mb - 0.00 in0.0 mm 0.00 in0.0 mm
12:25 PM 78.1°F25.6°C 69.9°F21.1°C 76% 4.6 mph SW7.4 kmh SW 4.6 mph7.4 kmh 31.83 in1077.9 mb - 0.00 in0.0 mm 0.00 in0.0 mm
12:30 PM 77.6°F25.3°C 69.8°F21.0°C 77% 4.6 mph WSW7.4 kmh WSW 4.6 mph7.4 kmh 31.83 in1077.9 mb - 0.00 in0.0 mm 0.00 in0.0 mm
12:35 PM 77.8°F25.4°C 70.0°F21.1°C 77% 4.6 mph SW7.4 kmh SW 5.8 mph9.3 kmh 31.83 in1077.9 mb - 0.00 in0.0 mm 0.00 in0.0 mm
12:40 PM 77.4°F25.2°C 69.6°F20.9°C 77% 5.8 mph SW9.3 kmh SW 5.8 mph9.3 kmh 31.83 in1077.9 mb - 0.00 in0.0 mm 0.00 in0.0 mm
12:45 PM 77.1°F25.1°C 70.1°F21.2°C 79% 4.6 mph SW7.4 kmh SW 4.6 mph7.4 kmh 31.83 in1077.9 mb - 0.00 in0.0 mm 0.00 in0.0 mm
12:50 PM 77.2°F25.1°C 69.8°F21.0°C 78% 4.6 mph SW7.4 kmh SW 5.8 mph9.3 kmh 31.83 in1077.9 mb - 0.00 in0.0 mm 0.00 in0.0 mm
12:55 PM 76.7°F24.8°C 70.0°F21.1°C 80% 4.6 mph SSW7.4 kmh SSW 5.8 mph9.3 kmh 31.83 in1077.9 mb - 0.00 in0.0 mm 0.00 in0.0 mm
01:00 PM 76.8°F24.9°C 70.1°F21.2°C 80% 4.6 mph SW7.4 kmh SW 5.8 mph9.3 kmh 31.83 in1077.9 mb - 0.00 in0.0 mm 0.00 in0.0 mm
01:10 PM 76.3°F24.6°C 70.7°F21.5°C 83% 4.6 mph S7.4 kmh S 5.8 mph9.3 kmh 31.83 in1077.9 mb - 0.00 in0.0 mm 0.00 in0.0 mm
01:15 PM 76.5°F24.7°C 70.9°F21.6°C 83% 4.6 mph SSW7.4 kmh SSW 4.6 mph7.4 kmh 31.83 in1077.9 mb - 0.00 in0.0 mm 0.00 in0.0 mm
01:20 PM 76.6°F24.8°C 71.0°F21.7°C 83% 4.6 mph SW7.4 kmh SW 4.6 mph7.4 kmh 31.83 in1077.9 mb - 0.00 in0.0 mm 0.00 in0.0 mm
01:25 PM 76.9°F24.9°C 71.3°F21.8°C 83% 3.5 mph SW5.6 kmh SW 4.6 mph7.4 kmh 31.83 in1077.9 mb - 0.00 in0.0 mm 0.00 in0.0 mm
01:30 PM 77.0°F25.0°C 71.4°F21.9°C 83% 4.6 mph SW7.4 kmh SW 4.6 mph7.4 kmh 31.83 in1077.9 mb - 0.00 in0.0 mm 0.00 in0.0 mm
01:35 PM 76.7°F24.8°C 71.1°F21.7°C 83% 4.6 mph SW7.4 kmh SW 4.6 mph7.4 kmh 31.83 in1077.9 mb - 0.00 in0.0 mm 0.00 in0.0 mm
01:40 PM 77.1°F25.1°C 71.6°F22.0°C 83% 4.6 mph SW7.4 kmh SW 5.8 mph9.3 kmh 31.83 in1077.9 mb - 0.00 in0.0 mm 0.00 in0.0 mm
01:45 PM 77.0°F25.0°C 71.1°F21.7°C 82% 4.6 mph SW7.4 kmh SW 4.6 mph7.4 kmh 31.83 in1077.9 mb - 0.00 in0.0 mm 0.00 in0.0 mm
01:50 PM 77.6°F25.3°C 71.7°F22.1°C 82% 4.6 mph SSW7.4 kmh SSW 5.8 mph9.3 kmh 31.83 in1077.9 mb - 0.00 in0.0 mm 0.00 in0.0 mm
01:55 PM 77.8°F25.4°C 71.5°F21.9°C 81% 4.6 mph SSW7.4 kmh SSW 4.6 mph7.4 kmh 31.83 in1077.9 mb - 0.00 in0.0 mm 0.00 in0.0 mm
02:00 PM 78.1°F25.6°C 71.8°F22.1°C 81% 4.6 mph SW7.4 kmh SW 5.8 mph9.3 kmh 31.83 in1077.9 mb - 0.00 in0.0 mm 0.00 in0.0 mm
02:10 PM 78.1°F25.6°C 71.4°F21.9°C 80% 4.6 mph SSW7.4 kmh SSW 5.8 mph9.3 kmh 31.83 in1077.9 mb - 0.00 in0.0 mm 0.00 in0.0 mm
02:15 PM 78.1°F25.6°C 71.0°F21.7°C 79% 5.8 mph SSW9.3 kmh SSW 5.8 mph9.3 kmh 31.83 in1077.9 mb - 0.00 in0.0 mm 0.00 in0.0 mm
02:20 PM 77.6°F25.3°C 70.9°F21.6°C 80% 4.6 mph SW7.4 kmh SW 4.6 mph7.4 kmh 31.83 in1077.9 mb - 0.00 in0.0 mm 0.00 in0.0 mm
02:25 PM 78.0°F25.6°C 71.4°F21.9°C 80% 3.5 mph SW5.6 kmh SW 4.6 mph7.4 kmh 31.83 in1077.9 mb - 0.00 in0.0 mm 0.00 in0.0 mm
02:30 PM 78.4°F25.8°C 71.4°F21.9°C 79% 4.6 mph SW7.4 kmh SW 4.6 mph7.4 kmh 31.83 in1077.9 mb - 0.00 in0.0 mm 0.00 in0.0 mm
02:35 PM 78.3°F25.7°C 70.9°F21.6°C 78% 4.6 mph SW7.4 kmh SW 5.8 mph9.3 kmh 31.83 in1077.9 mb - 0.00 in0.0 mm 0.00 in0.0 mm
02:40 PM 78.5°F25.8°C 71.1°F21.7°C 78% 4.6 mph SW7.4 kmh SW 4.6 mph7.4 kmh 31.83 in1077.9 mb - 0.00 in0.0 mm 0.00 in0.0 mm
02:45 PM 79.3°F26.3°C 71.1°F21.7°C 76% 4.6 mph WSW7.4 kmh WSW 4.6 mph7.4 kmh 31.83 in1077.9 mb - 0.00 in0.0 mm 0.00 in0.0 mm
02:50 PM 79.0°F26.1°C 70.8°F21.6°C 76% 5.8 mph SW9.3 kmh SW 5.8 mph9.3 kmh 31.83 in1077.9 mb - 0.00 in0.0 mm 0.00 in0.0 mm
02:55 PM 78.1°F25.6°C 71.0°F21.7°C 79% 4.6 mph SW7.4 kmh SW 5.8 mph9.3 kmh 31.83 in1077.9 mb - 0.00 in0.0 mm 0.00 in0.0 mm
03:00 PM 77.7°F25.4°C 71.0°F21.7°C 80% 4.6 mph S7.4 kmh S 4.6 mph7.4 kmh 31.83 in1077.9 mb - 0.00 in0.0 mm 0.00 in0.0 mm
03:10 PM 78.6°F25.9°C 71.1°F21.7°C 78% 4.6 mph SW7.4 kmh SW 5.8 mph9.3 kmh 31.83 in1077.9 mb - 0.00 in0.0 mm 0.00 in0.0 mm
03:15 PM 78.4°F25.8°C 71.0°F21.7°C 78% 4.6 mph SW7.4 kmh SW 5.8 mph9.3 kmh 31.83 in1077.9 mb - 0.00 in0.0 mm 0.00 in0.0 mm
03:20 PM 77.7°F25.4°C 71.0°F21.7°C 80% 4.6 mph SW7.4 kmh SW 5.8 mph9.3 kmh 31.83 in1077.9 mb - 0.00 in0.0 mm 0.00 in0.0 mm
03:25 PM 77.6°F25.3°C 71.0°F21.7°C 80% 4.6 mph SW7.4 kmh SW 5.8 mph9.3 kmh 31.83 in1077.9 mb - 0.00 in0.0 mm 0.00 in0.0 mm
03:30 PM 77.6°F25.3°C 70.5°F21.4°C 79% 4.6 mph SSW7.4 kmh SSW 5.8 mph9.3 kmh 31.83 in1077.9 mb - 0.00 in0.0 mm 0.00 in0.0 mm
03:35 PM 77.3°F25.2°C 70.6°F21.4°C 80% 4.6 mph SW7.4 kmh SW 5.8 mph9.3 kmh 31.83 in1077.9 mb - 0.00 in0.0 mm 0.00 in0.0 mm
03:40 PM 78.3°F25.7°C 71.6°F22.0°C 80% 4.6 mph SSW7.4 kmh SSW 4.6 mph7.4 kmh 31.83 in1077.9 mb - 0.00 in0.0 mm 0.00 in0.0 mm
03:45 PM 78.5°F25.8°C 71.4°F21.9°C 79% 4.6 mph SSW7.4 kmh SSW 5.8 mph9.3 kmh 31.83 in1077.9 mb - 0.00 in0.0 mm 0.00 in0.0 mm
03:50 PM 78.1°F25.6°C 71.0°F21.7°C 79% 5.8 mph SSW9.3 kmh SSW 5.8 mph9.3 kmh 31.83 in1077.9 mb - 0.00 in0.0 mm 0.00 in0.0 mm
03:55 PM 77.7°F25.4°C 71.0°F21.7°C 80% 4.6 mph SW7.4 kmh SW 5.8 mph9.3 kmh 31.83 in1077.9 mb - 0.00 in0.0 mm 0.00 in0.0 mm
04:00 PM 77.7°F25.4°C 71.0°F21.7°C 80% 4.6 mph SW7.4 kmh SW 5.8 mph9.3 kmh 31.83 in1077.9 mb - 0.00 in0.0 mm 0.00 in0.0 mm
04:10 PM 78.9°F26.1°C 71.4°F21.9°C 78% 4.6 mph S7.4 kmh S 5.8 mph9.3 kmh 31.83 in1077.9 mb - 0.00 in0.0 mm 0.00 in0.0 mm
04:15 PM 78.6°F25.9°C 71.1°F21.7°C 78% 4.6 mph SW7.4 kmh SW 5.8 mph9.3 kmh 31.83 in1077.9 mb - 0.00 in0.0 mm 0.00 in0.0 mm
04:20 PM 78.3°F25.7°C 71.2°F21.8°C 79% 4.6 mph WSW7.4 kmh WSW 4.6 mph7.4 kmh 31.83 in1077.9 mb - 0.00 in0.0 mm 0.00 in0.0 mm
04:25 PM 78.9°F26.1°C 71.8°F22.1°C 79% 3.5 mph SSW5.6 kmh SSW 3.5 mph5.6 kmh 31.83 in1077.9 mb - 0.00 in0.0 mm 0.00 in0.0 mm
04:30 PM 78.4°F25.8°C 71.4°F21.9°C 79% 3.5 mph SW5.6 kmh SW 3.5 mph5.6 kmh 31.83 in1077.9 mb - 0.00 in0.0 mm 0.00 in0.0 mm
04:35 PM 78.1°F25.6°C 71.0°F21.7°C 79% 3.5 mph SW5.6 kmh SW 4.6 mph7.4 kmh 31.83 in1077.9 mb - 0.00 in0.0 mm 0.00 in0.0 mm
04:40 PM 77.9°F25.5°C 71.2°F21.8°C 80% 4.6 mph SW7.4 kmh SW 4.6 mph7.4 kmh 31.83 in1077.9 mb - 0.00 in0.0 mm 0.00 in0.0 mm
04:45 PM 76.8°F24.9°C 70.8°F21.6°C 82% 4.6 mph SW7.4 kmh SW 4.6 mph7.4 kmh 31.83 in1077.9 mb - 0.00 in0.0 mm 0.00 in0.0 mm
04:50 PM 76.7°F24.8°C 71.5°F21.9°C 84% 3.5 mph S5.6 kmh S 4.6 mph7.4 kmh 31.83 in1077.9 mb - 0.00 in0.0 mm 0.00 in0.0 mm
04:55 PM 76.4°F24.7°C 71.6°F22.0°C 85% 2.3 mph SE3.7 kmh SE 2.3 mph3.7 kmh 31.83 in1077.9 mb - 0.00 in0.0 mm 0.00 in0.0 mm
05:00 PM 75.9°F24.4°C 71.0°F21.7°C 85% 3.5 mph SSE5.6 kmh SSE 4.6 mph7.4 kmh 31.83 in1077.9 mb - 0.00 in0.0 mm 0.00 in0.0 mm
05:10 PM 76.2°F24.6°C 71.3°F21.8°C 85% 5.8 mph S9.3 kmh S 5.8 mph9.3 kmh 31.83 in1077.9 mb - 0.00 in0.0 mm 0.00 in0.0 mm
05:15 PM 75.3°F24.1°C 70.9°F21.6°C 86% 4.6 mph SSW7.4 kmh SSW 5.8 mph9.3 kmh 31.83 in1077.9 mb - 0.00 in0.0 mm 0.00 in0.0 mm
05:20 PM 74.7°F23.7°C 70.9°F21.6°C 88% 5.8 mph SW9.3 kmh SW 5.8 mph9.3 kmh 31.83 in1077.9 mb - 0.00 in0.0 mm 0.00 in0.0 mm
05:25 PM 76.0°F24.4°C 71.9°F22.2°C 87% 3.5 mph W5.6 kmh W 3.5 mph5.6 kmh 31.83 in1077.9 mb - 0.00 in0.0 mm 0.00 in0.0 mm
05:30 PM 76.3°F24.6°C 71.5°F21.9°C 85% 3.5 mph SW5.6 kmh SW 5.8 mph9.3 kmh 31.83 in1077.9 mb - 0.00 in0.0 mm 0.00 in0.0 mm
05:35 PM 76.3°F24.6°C 71.1°F21.7°C 84% 3.5 mph SW5.6 kmh SW 4.6 mph7.4 kmh 31.83 in1077.9 mb - 0.00 in0.0 mm 0.00 in0.0 mm
05:40 PM 75.7°F24.3°C 71.3°F21.8°C 86% 2.3 mph SW3.7 kmh SW 3.5 mph5.6 kmh 31.83 in1077.9 mb - 0.00 in0.0 mm 0.00 in0.0 mm
05:45 PM 76.2°F24.6°C 71.3°F21.8°C 85% 3.5 mph SSW5.6 kmh SSW 4.6 mph7.4 kmh 31.83 in1077.9 mb - 0.00 in0.0 mm 0.00 in0.0 mm
05:50 PM 75.6°F24.2°C 71.1°F21.7°C 86% 4.6 mph WSW7.4 kmh WSW 4.6 mph7.4 kmh 31.83 in1077.9 mb - 0.00 in0.0 mm 0.00 in0.0 mm
05:55 PM 75.4°F24.1°C 71.2°F21.8°C 87% 2.3 mph SW3.7 kmh SW 3.5 mph5.6 kmh 31.83 in1077.9 mb - 0.00 in0.0 mm 0.00 in0.0 mm
06:00 PM 75.8°F24.3°C 71.6°F22.0°C 87% 3.5 mph WSW5.6 kmh WSW 4.6 mph7.4 kmh 31.83 in1077.9 mb - 0.00 in0.0 mm 0.00 in0.0 mm
06:10 PM 74.1°F23.4°C 71.0°F21.7°C 90% 2.3 mph SW3.7 kmh SW 2.3 mph3.7 kmh 31.83 in1077.9 mb - 0.00 in0.0 mm 0.00 in0.0 mm
06:15 PM 74.0°F23.3°C 70.9°F21.6°C 90% 2.3 mph SSW3.7 kmh SSW 3.5 mph5.6 kmh 31.83 in1077.9 mb - 0.00 in0.0 mm 0.00 in0.0 mm
06:20 PM 74.1°F23.4°C 71.0°F21.7°C 90% 3.5 mph WSW5.6 kmh WSW 3.5 mph5.6 kmh 31.83 in1077.9 mb - 0.00 in0.0 mm 0.00 in0.0 mm
06:25 PM 73.8°F23.2°C 70.7°F21.5°C 90% 2.3 mph SSW3.7 kmh SSW 4.6 mph7.4 kmh 31.83 in1077.9 mb - 0.00 in0.0 mm 0.00 in0.0 mm
06:30 PM 73.8°F23.2°C 71.0°F21.7°C 91% 3.5 mph SSW5.6 kmh SSW 4.6 mph7.4 kmh 31.83 in1077.9 mb - 0.00 in0.0 mm 0.00 in0.0 mm
06:35 PM 73.2°F22.9°C 70.8°F21.6°C 92% 3.5 mph SSW5.6 kmh SSW 3.5 mph5.6 kmh 31.83 in1077.9 mb - 0.00 in0.0 mm 0.00 in0.0 mm
06:40 PM 72.4°F22.4°C 70.6°F21.4°C 94% 3.5 mph SSW5.6 kmh SSW 3.5 mph5.6 kmh 31.83 in1077.9 mb - 0.00 in0.0 mm 0.00 in0.0 mm
06:45 PM 72.3°F22.4°C 70.7°F21.5°C 95% 3.5 mph SSW5.6 kmh SSW 3.5 mph5.6 kmh 31.83 in1077.9 mb - 0.00 in0.0 mm 0.00 in0.0 mm
06:50 PM 72.7°F22.6°C 71.2°F21.8°C 95% 2.3 mph SW3.7 kmh SW 3.5 mph5.6 kmh 31.83 in1077.9 mb - 0.00 in0.0 mm 0.00 in0.0 mm
06:55 PM 74.1°F23.4°C 71.6°F22.0°C 92% 2.3 mph NW3.7 kmh NW 4.6 mph7.4 kmh 31.83 in1077.9 mb - 0.00 in0.0 mm 0.00 in0.0 mm
07:00 PM 74.5°F23.6°C 71.4°F21.9°C 90% 3.5 mph WSW5.6 kmh WSW 4.6 mph7.4 kmh 31.83 in1077.9 mb - 0.00 in0.0 mm 0.00 in0.0 mm
07:10 PM 74.3°F23.5°C 71.5°F21.9°C 91% 2.3 mph SW3.7 kmh SW 2.3 mph3.7 kmh 31.83 in1077.9 mb - 0.00 in0.0 mm 0.00 in0.0 mm
07:15 PM 74.1°F23.4°C 71.3°F21.8°C 91% 2.3 mph SSW3.7 kmh SSW 2.3 mph3.7 kmh 31.83 in1077.9 mb - 0.00 in0.0 mm 0.00 in0.0 mm
07:20 PM 73.7°F23.2°C 70.9°F21.6°C 91% 2.3 mph SW3.7 kmh SW 2.3 mph3.7 kmh 31.83 in1077.9 mb - 0.00 in0.0 mm 0.00 in0.0 mm
07:25 PM 73.4°F23.0°C 70.9°F21.6°C 92% 2.3 mph SW3.7 kmh SW 2.3 mph3.7 kmh 31.83 in1077.9 mb - 0.00 in0.0 mm 0.00 in0.0 mm
07:30 PM 73.1°F22.8°C 70.6°F21.4°C 92% 2.3 mph SW3.7 kmh SW 3.5 mph5.6 kmh 31.83 in1077.9 mb - 0.00 in0.0 mm 0.00 in0.0 mm
07:35 PM 72.9°F22.7°C 70.4°F21.3°C 92% 1.2 mph WSW1.9 kmh WSW 1.2 mph1.9 kmh 31.83 in1077.9 mb - 0.00 in0.0 mm 0.00 in0.0 mm
07:40 PM 72.7°F22.6°C 70.2°F21.2°C 92% 1.2 mph SSW1.9 kmh SSW 2.3 mph3.7 kmh 31.83 in1077.9 mb - 0.00 in0.0 mm 0.00 in0.0 mm
07:45 PM 72.7°F22.6°C 70.5°F21.4°C 93% 1.2 mph SW1.9 kmh SW 2.3 mph3.7 kmh 31.83 in1077.9 mb - 0.00 in0.0 mm 0.00 in0.0 mm
07:50 PM 72.5°F22.5°C 70.3°F21.3°C 93% 2.3 mph SSW3.7 kmh SSW 2.3 mph3.7 kmh 31.83 in1077.9 mb - 0.00 in0.0 mm 0.00 in0.0 mm
07:55 PM 72.3°F22.4°C 70.1°F21.2°C 93% 2.3 mph S3.7 kmh S 2.3 mph3.7 kmh 31.83 in1077.9 mb - 0.00 in0.0 mm 0.00 in0.0 mm
08:00 PM 72.3°F22.4°C 70.1°F21.2°C 93% Calm Calm -- 31.83 in1077.9 mb - 0.00 in0.0 mm 0.00 in0.0 mm
08:10 PM 71.6°F22.0°C 69.4°F20.8°C 93% 1.2 mph SSW1.9 kmh SSW 2.3 mph3.7 kmh 31.83 in1077.9 mb - 0.00 in0.0 mm 0.00 in0.0 mm
08:15 PM 71.4°F21.9°C 69.6°F20.9°C 94% 1.2 mph SW1.9 kmh SW 2.3 mph3.7 kmh 31.83 in1077.9 mb - 0.00 in0.0 mm 0.00 in0.0 mm
08:20 PM 71.0°F21.7°C 69.5°F20.8°C 95% 2.3 mph SW3.7 kmh SW 4.6 mph7.4 kmh 31.83 in1077.9 mb - 0.00 in0.0 mm 0.00 in0.0 mm
08:25 PM 70.9°F21.6°C 69.4°F20.8°C 95% 3.5 mph SSW5.6 kmh SSW 3.5 mph5.6 kmh 31.83 in1077.9 mb - 0.00 in0.0 mm 0.00 in0.0 mm
08:30 PM 70.9°F21.6°C 69.4°F20.8°C 95% 2.3 mph SSW3.7 kmh SSW 3.5 mph5.6 kmh 31.83 in1077.9 mb - 0.00 in0.0 mm 0.00 in0.0 mm
08:35 PM 70.7°F21.5°C 69.2°F20.7°C 95% 1.2 mph N1.9 kmh N 2.3 mph3.7 kmh 31.83 in1077.9 mb - 0.00 in0.0 mm 0.00 in0.0 mm
08:40 PM 70.7°F21.5°C 69.2°F20.7°C 95% 3.5 mph W5.6 kmh W 2.3 mph3.7 kmh 31.83 in1077.9 mb - 0.00 in0.0 mm 0.00 in0.0 mm
08:45 PM 70.7°F21.5°C 69.2°F20.7°C 95% Calm Calm 2.3 mph3.7 kmh 31.83 in1077.9 mb - 0.00 in0.0 mm 0.00 in0.0 mm
08:50 PM 70.7°F21.5°C 69.2°F20.7°C 95% 1.2 mph W1.9 kmh W 1.2 mph1.9 kmh 31.83 in1077.9 mb - 0.00 in0.0 mm 0.00 in0.0 mm
08:55 PM 70.7°F21.5°C 69.2°F20.7°C 95% 3.5 mph WSW5.6 kmh WSW 4.6 mph7.4 kmh 31.83 in1077.9 mb - 0.00 in0.0 mm 0.00 in0.0 mm
09:00 PM 70.5°F21.4°C 69.0°F20.6°C 95% 2.3 mph WSW3.7 kmh WSW 2.3 mph3.7 kmh 31.83 in1077.9 mb - 0.00 in0.0 mm 0.00 in0.0 mm
09:10 PM 70.4°F21.3°C 69.2°F20.7°C 96% 1.2 mph NNW1.9 kmh NNW 1.2 mph1.9 kmh 31.83 in1077.9 mb - 0.00 in0.0 mm 0.00 in0.0 mm
09:15 PM 70.2°F21.2°C 69.0°F20.6°C 96% Calm Calm 1.2 mph1.9 kmh 31.83 in1077.9 mb - 0.00 in0.0 mm 0.00 in0.0 mm
09:20 PM 70.0°F21.1°C 69.1°F20.6°C 97% 1.2 mph NNW1.9 kmh NNW 1.2 mph1.9 kmh 31.83 in1077.9 mb - 0.00 in0.0 mm 0.00 in0.0 mm
09:25 PM 70.0°F21.1°C 69.4°F20.8°C 98% 2.3 mph W3.7 kmh W 2.3 mph3.7 kmh 31.83 in1077.9 mb - 0.00 in0.0 mm 0.00 in0.0 mm
09:30 PM 70.0°F21.1°C 69.7°F20.9°C 99% 3.5 mph W5.6 kmh W 3.5 mph5.6 kmh 31.83 in1077.9 mb - 0.00 in0.0 mm 0.00 in0.0 mm
09:35 PM 70.0°F21.1°C 69.7°F20.9°C 99% 2.3 mph W3.7 kmh W 2.3 mph3.7 kmh 31.83 in1077.9 mb - 0.00 in0.0 mm 0.00 in0.0 mm
09:40 PM 70.0°F21.1°C 69.7°F20.9°C 99% 2.3 mph WSW3.7 kmh WSW 3.5 mph5.6 kmh 31.83 in1077.9 mb - 0.00 in0.0 mm 0.00 in0.0 mm
09:45 PM 70.2°F21.2°C 69.9°F21.1°C 99% 2.3 mph W3.7 kmh W 3.5 mph5.6 kmh 31.83 in1077.9 mb - 0.00 in0.0 mm 0.00 in0.0 mm
09:50 PM 70.4°F21.3°C 70.1°F21.2°C 99% 2.3 mph WSW3.7 kmh WSW 2.3 mph3.7 kmh 31.83 in1077.9 mb - 0.00 in0.0 mm 0.00 in0.0 mm
09:55 PM 70.2°F21.2°C 69.9°F21.1°C 99% 1.2 mph SW1.9 kmh SW 3.5 mph5.6 kmh 31.83 in1077.9 mb - 0.00 in0.0 mm 0.00 in0.0 mm
10:00 PM 70.2°F21.2°C 69.9°F21.1°C 99% 1.2 mph WSW1.9 kmh WSW 2.3 mph3.7 kmh 31.83 in1077.9 mb - 0.00 in0.0 mm 0.00 in0.0 mm
10:10 PM 70.2°F21.2°C 69.9°F21.1°C 99% 1.2 mph SW1.9 kmh SW 1.2 mph1.9 kmh 31.83 in1077.9 mb - 0.00 in0.0 mm 0.00 in0.0 mm
10:15 PM 70.2°F21.2°C 69.9°F21.1°C 99% 1.2 mph W1.9 kmh W 2.3 mph3.7 kmh 31.83 in1077.9 mb - 0.00 in0.0 mm 0.00 in0.0 mm
10:20 PM 70.2°F21.2°C 69.9°F21.1°C 99% 1.2 mph WSW1.9 kmh WSW 2.3 mph3.7 kmh 31.83 in1077.9 mb - 0.00 in0.0 mm 0.00 in0.0 mm
10:25 PM 70.2°F21.2°C 69.9°F21.1°C 99% 1.2 mph W1.9 kmh W 1.2 mph1.9 kmh 31.83 in1077.9 mb - 0.00 in0.0 mm 0.00 in0.0 mm
10:30 PM 70.2°F21.2°C 69.9°F21.1°C 99% 2.3 mph S3.7 kmh S 2.3 mph3.7 kmh 31.83 in1077.9 mb - 0.00 in0.0 mm 0.00 in0.0 mm
10:35 PM 70.5°F21.4°C 70.2°F21.2°C 99% 1.2 mph WSW1.9 kmh WSW 2.3 mph3.7 kmh 31.83 in1077.9 mb - 0.00 in0.0 mm 0.00 in0.0 mm
10:40 PM 70.5°F21.4°C 70.2°F21.2°C 99% 1.2 mph NE1.9 kmh NE 2.3 mph3.7 kmh 31.83 in1077.9 mb - 0.00 in0.0 mm 0.00 in0.0 mm
10:45 PM 70.7°F21.5°C 70.1°F21.2°C 98% 1.2 mph WNW1.9 kmh WNW 3.5 mph5.6 kmh 31.83 in1077.9 mb - 0.00 in0.0 mm 0.00 in0.0 mm
10:50 PM 70.9°F21.6°C 70.3°F21.3°C 98% 1.2 mph E1.9 kmh E 1.2 mph1.9 kmh 31.83 in1077.9 mb - 0.00 in0.0 mm 0.00 in0.0 mm
10:55 PM 71.1°F21.7°C 70.5°F21.4°C 98% Calm Calm 1.2 mph1.9 kmh 31.83 in1077.9 mb - 0.00 in0.0 mm 0.00 in0.0 mm
11:00 PM 71.1°F21.7°C 70.5°F21.4°C 98% 1.2 mph SW1.9 kmh SW 1.2 mph1.9 kmh 31.83 in1077.9 mb - 0.00 in0.0 mm 0.00 in0.0 mm
11:10 PM 71.1°F21.7°C 70.5°F21.4°C 98% 1.2 mph SW1.9 kmh SW -- 31.83 in1077.9 mb - 0.00 in0.0 mm 0.00 in0.0 mm
11:15 PM 71.1°F21.7°C 70.5°F21.4°C 98% Calm Calm 2.3 mph3.7 kmh 31.83 in1077.9 mb - 0.00 in0.0 mm 0.00 in0.0 mm
11:20 PM 71.1°F21.7°C 70.5°F21.4°C 98% 1.2 mph SW1.9 kmh SW 1.2 mph1.9 kmh 31.83 in1077.9 mb - 0.00 in0.0 mm 0.00 in0.0 mm
11:25 PM 71.3°F21.8°C 70.7°F21.5°C 98% Calm Calm 1.2 mph1.9 kmh 31.83 in1077.9 mb - 0.00 in0.0 mm 0.00 in0.0 mm
11:30 PM 71.3°F21.8°C 70.7°F21.5°C 98% 2.3 mph SW3.7 kmh SW 2.3 mph3.7 kmh 31.83 in1077.9 mb - 0.00 in0.0 mm 0.00 in0.0 mm
11:35 PM 71.4°F21.9°C 70.8°F21.6°C 98% 2.3 mph SW3.7 kmh SW 2.3 mph3.7 kmh 31.83 in1077.9 mb - 0.00 in0.0 mm 0.00 in0.0 mm
11:40 PM 71.4°F21.9°C 70.8°F21.6°C 98% 2.3 mph SW3.7 kmh SW 2.3 mph3.7 kmh 31.83 in1077.9 mb - 0.00 in0.0 mm 0.00 in0.0 mm
11:45 PM 71.6°F22.0°C 71.0°F21.7°C 98% 2.3 mph S3.7 kmh S 2.3 mph3.7 kmh 31.83 in1077.9 mb - 0.00 in0.0 mm 0.00 in0.0 mm
11:50 PM 71.6°F22.0°C 71.0°F21.7°C 98% 1.2 mph WSW1.9 kmh WSW 1.2 mph1.9 kmh 31.83 in1077.9 mb - 0.00 in0.0 mm 0.00 in0.0 mm
11:55 PM 71.8°F22.1°C 71.2°F21.8°C 98% 2.3 mph WNW3.7 kmh WNW 3.5 mph5.6 kmh 31.83 in1077.9 mb - 0.00 in0.0 mm 0.00 in0.0 mm